sensor_id;sensor_type;location;lat;lon;timestamp;pressure;altitude;pressure_sealevel;temperature;humidity
63903;BME280;50072;50.678;13.938;2023-02-18T00:01:23;99753.78;;;10.09;83.49
63903;BME280;50072;50.678;13.938;2023-02-18T00:04:04;99749.28;;;10.12;82.98
63903;BME280;50072;50.678;13.938;2023-02-18T00:06:34;99759.97;;;10.12;82.83
63903;BME280;50072;50.678;13.938;2023-02-18T00:09:04;99759.97;;;10.12;82.89
63903;BME280;50072;50.678;13.938;2023-02-18T00:11:35;99772.38;;;10.16;83.63
63903;BME280;50072;50.678;13.938;2023-02-18T00:14:04;99775.00;;;10.18;84.51
63903;BME280;50072;50.678;13.938;2023-02-18T00:16:46;99777.81;;;10.10;85.57
63903;BME280;50072;50.678;13.938;2023-02-18T00:19:25;99775.22;;;10.07;85.63
63903;BME280;50072;50.678;13.938;2023-02-18T00:21:55;99769.94;;;10.04;86.52
63903;BME280;50072;50.678;13.938;2023-02-18T00:24:25;99780.75;;;9.99;86.85
63903;BME280;50072;50.678;13.938;2023-02-18T00:26:56;99774.53;;;9.97;87.24
63903;BME280;50072;50.678;13.938;2023-02-18T00:29:22;99760.44;;;9.91;87.46
63903;BME280;50072;50.678;13.938;2023-02-18T00:31:54;99771.09;;;9.92;88.02
63903;BME280;50072;50.678;13.938;2023-02-18T00:34:20;99777.44;;;9.87;88.63
63903;BME280;50072;50.678;13.938;2023-02-18T00:37:04;99792.69;;;9.81;88.29
63903;BME280;50072;50.678;13.938;2023-02-18T00:39:36;99792.63;;;9.84;85.91
63903;BME280;50072;50.678;13.938;2023-02-18T00:42:01;99799.66;;;9.89;86.24
63903;BME280;50072;50.678;13.938;2023-02-18T00:44:36;99806.00;;;9.83;88.40
63903;BME280;50072;50.678;13.938;2023-02-18T00:47:03;99792.88;;;9.72;87.36
63903;BME280;50072;50.678;13.938;2023-02-18T00:49:35;99789.41;;;9.67;89.60
63903;BME280;50072;50.678;13.938;2023-02-18T00:52:06;99786.06;;;9.56;90.22
63903;BME280;50072;50.678;13.938;2023-02-18T00:54:33;99797.66;;;9.53;89.38
63903;BME280;50072;50.678;13.938;2023-02-18T00:57:04;99797.81;;;9.45;90.71
63903;BME280;50072;50.678;13.938;2023-02-18T00:59:34;99804.06;;;9.44;89.54
63903;BME280;50072;50.678;13.938;2023-02-18T01:02:03;99796.97;;;9.43;91.00
63903;BME280;50072;50.678;13.938;2023-02-18T01:04:34;99783.69;;;9.39;89.32
63903;BME280;50072;50.678;13.938;2023-02-18T01:07:01;99802.47;;;9.34;88.10
63903;BME280;50072;50.678;13.938;2023-02-18T01:09:27;99812.25;;;9.37;87.66
63903;BME280;50072;50.678;13.938;2023-02-18T01:11:55;99810.47;;;9.36;86.51
63903;BME280;50072;50.678;13.938;2023-02-18T01:14:25;99811.47;;;9.30;88.37
63903;BME280;50072;50.678;13.938;2023-02-18T01:17:04;99805.31;;;9.26;88.36
63903;BME280;50072;50.678;13.938;2023-02-18T01:19:32;99805.28;;;9.28;87.86
63903;BME280;50072;50.678;13.938;2023-02-18T01:22:00;99805.25;;;9.29;87.71
63903;BME280;50072;50.678;13.938;2023-02-18T01:24:34;99807.06;;;9.26;88.56
63903;BME280;50072;50.678;13.938;2023-02-18T01:27:04;99807.94;;;9.28;87.28
63903;BME280;50072;50.678;13.938;2023-02-18T01:29:34;99796.31;;;9.29;88.28
63903;BME280;50072;50.678;13.938;2023-02-18T01:32:04;99802.63;;;9.26;87.93
63903;BME280;50072;50.678;13.938;2023-02-18T01:34:32;99799.00;;;9.29;86.70
63903;BME280;50072;50.678;13.938;2023-02-18T01:37:04;99790.09;;;9.30;87.42
63903;BME280;50072;50.678;13.938;2023-02-18T01:39:34;99797.16;;;9.34;86.70
63903;BME280;50072;50.678;13.938;2023-02-18T01:42:00;99791.88;;;9.31;87.08
63903;BME280;50072;50.678;13.938;2023-02-18T01:44:34;99787.34;;;9.33;86.34
63903;BME280;50072;50.678;13.938;2023-02-18T01:47:05;99790.94;;;9.33;86.33
63903;BME280;50072;50.678;13.938;2023-02-18T01:49:34;99794.44;;;9.36;87.10
63903;BME280;50072;50.678;13.938;2023-02-18T01:52:33;99784.63;;;9.36;86.93
63903;BME280;50072;50.678;13.938;2023-02-18T01:55:06;99777.53;;;9.35;84.76
63903;BME280;50072;50.678;13.938;2023-02-18T01:57:35;99790.91;;;9.35;82.64
63903;BME280;50072;50.678;13.938;2023-02-18T02:00:10;99796.22;;;9.37;83.12
63903;BME280;50072;50.678;13.938;2023-02-18T02:02:48;99783.59;;;9.43;81.00
63903;BME280;50072;50.678;13.938;2023-02-18T02:05:22;99785.44;;;9.41;82.13
63903;BME280;50072;50.678;13.938;2023-02-18T02:07:51;99771.28;;;9.36;82.32
63903;BME280;50072;50.678;13.938;2023-02-18T02:10:21;99786.38;;;9.39;81.52
63903;BME280;50072;50.678;13.938;2023-02-18T02:13:15;99789.00;;;9.40;80.80
63903;BME280;50072;50.678;13.938;2023-02-18T02:16:05;99777.47;;;9.38;81.40
63903;BME280;50072;50.678;13.938;2023-02-18T02:18:58;99784.53;;;9.42;80.08
63903;BME280;50072;50.678;13.938;2023-02-18T02:36:10;99807.81;;;9.34;82.30
63903;BME280;50072;50.678;13.938;2023-02-18T02:39:10;99802.47;;;9.34;82.42
63903;BME280;50072;50.678;13.938;2023-02-18T02:41:53;99797.94;;;9.38;82.67
63903;BME280;50072;50.678;13.938;2023-02-18T02:44:47;99797.09;;;9.37;83.21
63903;BME280;50072;50.678;13.938;2023-02-18T02:47:40;99784.59;;;9.39;83.35
63903;BME280;50072;50.678;13.938;2023-02-18T02:50:50;99790.78;;;9.41;84.97
63903;BME280;50072;50.678;13.938;2023-02-18T02:53:27;99788.31;;;9.29;85.18
63903;BME280;50072;50.678;13.938;2023-02-18T02:55:56;99784.88;;;9.24;85.00
63903;BME280;50072;50.678;13.938;2023-02-18T02:58:22;99809.69;;;9.29;84.35
63903;BME280;50072;50.678;13.938;2023-02-18T03:03:48;99787.56;;;9.22;84.45
63903;BME280;50072;50.678;13.938;2023-02-18T03:15:51;99797.88;;;8.91;88.15
63903;BME280;50072;50.678;13.938;2023-02-18T03:26:35;99793.50;;;8.87;87.84
63903;BME280;50072;50.678;13.938;2023-02-18T03:29:06;99787.22;;;8.88;88.81
63903;BME280;50072;50.678;13.938;2023-02-18T03:31:36;99794.28;;;8.92;88.34
63903;BME280;50072;50.678;13.938;2023-02-18T03:34:08;99791.59;;;8.93;89.31
63903;BME280;50072;50.678;13.938;2023-02-18T03:36:47;99793.38;;;8.93;88.91
63903;BME280;50072;50.678;13.938;2023-02-18T03:39:22;99800.56;;;8.91;86.84
63903;BME280;50072;50.678;13.938;2023-02-18T03:41:49;99796.94;;;8.93;87.20
63903;BME280;50072;50.678;13.938;2023-02-18T03:44:47;99805.81;;;8.95;88.17
63903;BME280;50072;50.678;13.938;2023-02-18T03:47:33;99803.19;;;8.92;89.43
63903;BME280;50072;50.678;13.938;2023-02-18T03:50:07;99808.59;;;8.89;90.93
63903;BME280;50072;50.678;13.938;2023-02-18T03:52:34;99801.44;;;8.90;91.04
63903;BME280;50072;50.678;13.938;2023-02-18T03:55:04;99802.44;;;8.84;90.74
63903;BME280;50072;50.678;13.938;2023-02-18T03:57:34;99803.31;;;8.85;90.91
63903;BME280;50072;50.678;13.938;2023-02-18T04:00:04;99785.56;;;8.80;90.82
63903;BME280;50072;50.678;13.938;2023-02-18T04:02:34;99790.91;;;8.80;90.00
63903;BME280;50072;50.678;13.938;2023-02-18T04:05:05;99788.22;;;8.82;88.79
63903;BME280;50072;50.678;13.938;2023-02-18T04:07:34;99794.34;;;8.89;89.41
63903;BME280;50072;50.678;13.938;2023-02-18T04:10:05;99796.16;;;8.87;89.44
63903;BME280;50072;50.678;13.938;2023-02-18T04:12:36;99803.31;;;8.85;89.77
63903;BME280;50072;50.678;13.938;2023-02-18T04:15:04;99789.06;;;8.86;89.68
63903;BME280;50072;50.678;13.938;2023-02-18T04:17:32;99788.13;;;8.88;89.93
63903;BME280;50072;50.678;13.938;2023-02-18T04:20:04;99776.56;;;8.88;90.23
63903;BME280;50072;50.678;13.938;2023-02-18T04:22:36;99786.41;;;8.84;90.74
63903;BME280;50072;50.678;13.938;2023-02-18T04:25:04;99787.34;;;8.81;91.26
63903;BME280;50072;50.678;13.938;2023-02-18T04:27:36;99781.19;;;8.78;91.55
63903;BME280;50072;50.678;13.938;2023-02-18T04:30:04;99783.84;;;8.78;91.72
63903;BME280;50072;50.678;13.938;2023-02-18T04:32:33;99790.00;;;8.81;91.93
63903;BME280;50072;50.678;13.938;2023-02-18T04:35:05;99774.91;;;8.80;91.58
63903;BME280;50072;50.678;13.938;2023-02-18T04:37:34;99778.38;;;8.86;92.00
63903;BME280;50072;50.678;13.938;2023-02-18T04:40:04;99769.53;;;8.84;91.66
63903;BME280;50072;50.678;13.938;2023-02-18T04:42:30;99781.91;;;8.88;91.77
63903;BME280;50072;50.678;13.938;2023-02-18T04:45:04;99772.19;;;8.85;91.76
63903;BME280;50072;50.678;13.938;2023-02-18T04:47:34;99783.66;;;8.89;91.98
63903;BME280;50072;50.678;13.938;2023-02-18T04:50:06;99778.28;;;8.92;92.44
63903;BME280;50072;50.678;13.938;2023-02-18T04:52:34;99779.13;;;8.95;92.41
63903;BME280;50072;50.678;13.938;2023-02-18T04:55:04;99784.53;;;8.91;92.97
63903;BME280;50072;50.678;13.938;2023-02-18T04:57:36;99772.06;;;8.91;93.01
63903;BME280;50072;50.678;13.938;2023-02-18T05:00:05;99780.00;;;8.96;93.37
63903;BME280;50072;50.678;13.938;2023-02-18T05:02:34;99777.34;;;8.94;93.26
63903;BME280;50072;50.678;13.938;2023-02-18T05:05:04;99771.09;;;8.97;93.17
63903;BME280;50072;50.678;13.938;2023-02-18T05:07:33;99778.22;;;8.96;93.52
63903;BME280;50072;50.678;13.938;2023-02-18T05:10:06;99766.66;;;8.94;94.09
63903;BME280;50072;50.678;13.938;2023-02-18T05:12:34;99766.69;;;8.93;94.81
63903;BME280;50072;50.678;13.938;2023-02-18T05:15:06;99764.13;;;8.88;95.45
63903;BME280;50072;50.678;13.938;2023-02-18T05:17:34;99773.91;;;8.86;96.22
63903;BME280;50072;50.678;13.938;2023-02-18T05:20:06;99779.38;;;8.80;97.32
63903;BME280;50072;50.678;13.938;2023-02-18T05:22:34;99789.19;;;8.76;97.65
63903;BME280;50072;50.678;13.938;2023-02-18T05:25:06;99781.00;;;8.89;98.10
63903;BME280;50072;50.678;13.938;2023-02-18T05:27:33;99783.72;;;8.86;98.50
63903;BME280;50072;50.678;13.938;2023-02-18T05:29:59;99777.53;;;8.84;99.88
63903;BME280;50072;50.678;13.938;2023-02-18T05:32:25;99778.56;;;8.73;100.00
63903;BME280;50072;50.678;13.938;2023-02-18T05:34:58;99783.16;;;8.67;100.00
63903;BME280;50072;50.678;13.938;2023-02-18T05:37:29;99780.56;;;8.59;100.00
63903;BME280;50072;50.678;13.938;2023-02-18T05:39:55;99771.72;;;8.57;100.00
63903;BME280;50072;50.678;13.938;2023-02-18T05:42:21;99769.19;;;8.48;100.00
63903;BME280;50072;50.678;13.938;2023-02-18T05:44:55;99764.75;;;8.43;100.00
63903;BME280;50072;50.678;13.938;2023-02-18T05:47:31;99768.25;;;8.50;100.00
63903;BME280;50072;50.678;13.938;2023-02-18T05:49:57;99763.03;;;8.42;100.00
63903;BME280;50072;50.678;13.938;2023-02-18T05:52:34;99764.75;;;8.43;100.00
63903;BME280;50072;50.678;13.938;2023-02-18T05:55:00;99755.78;;;8.51;100.00
63903;BME280;50072;50.678;13.938;2023-02-18T05:57:28;99757.66;;;8.47;100.00
63903;BME280;50072;50.678;13.938;2023-02-18T05:59:55;99764.66;;;8.53;100.00
63903;BME280;50072;50.678;13.938;2023-02-18T06:02:33;99757.66;;;8.45;100.00
63903;BME280;50072;50.678;13.938;2023-02-18T06:05:05;99757.63;;;8.49;100.00
63903;BME280;50072;50.678;13.938;2023-02-18T06:07:34;99746.13;;;8.42;100.00
63903;BME280;50072;50.678;13.938;2023-02-18T06:10:04;99748.09;;;8.29;100.00
63903;BME280;50072;50.678;13.938;2023-02-18T06:12:35;99747.19;;;8.30;100.00
63903;BME280;50072;50.678;13.938;2023-02-18T06:15:02;99740.91;;;8.34;100.00
63903;BME280;50072;50.678;13.938;2023-02-18T06:17:29;99731.25;;;8.27;100.00
63903;BME280;50072;50.678;13.938;2023-02-18T06:19:59;99725.97;;;8.24;100.00
63903;BME280;50072;50.678;13.938;2023-02-18T06:22:25;99727.78;;;8.20;100.00
63903;BME280;50072;50.678;13.938;2023-02-18T06:24:57;99724.09;;;8.29;100.00
63903;BME280;50072;50.678;13.938;2023-02-18T06:27:30;99723.31;;;8.22;100.00
63903;BME280;50072;50.678;13.938;2023-02-18T06:29:59;99713.56;;;8.20;100.00
63903;BME280;50072;50.678;13.938;2023-02-18T06:32:33;99726.84;;;8.24;100.00
63903;BME280;50072;50.678;13.938;2023-02-18T06:35:00;99735.72;;;8.23;100.00
63903;BME280;50072;50.678;13.938;2023-02-18T06:37:28;99719.81;;;8.17;100.00
63903;BME280;50072;50.678;13.938;2023-02-18T06:39:54;99720.78;;;8.11;100.00
63903;BME280;50072;50.678;13.938;2023-02-18T06:42:19;99738.59;;;8.08;100.00
63903;BME280;50072;50.678;13.938;2023-02-18T06:44:54;99738.72;;;8.00;100.00
63903;BME280;50072;50.678;13.938;2023-02-18T06:47:23;99730.72;;;8.00;100.00
63903;BME280;50072;50.678;13.938;2023-02-18T06:50:01;99715.69;;;7.96;100.00
63903;BME280;50072;50.678;13.938;2023-02-18T06:52:27;99717.41;;;8.00;100.00
63903;BME280;50072;50.678;13.938;2023-02-18T06:54:55;99718.25;;;8.02;100.00
63903;BME280;50072;50.678;13.938;2023-02-18T06:57:21;99697.75;;;8.07;100.00
63903;BME280;50072;50.678;13.938;2023-02-18T06:59:47;99707.53;;;8.07;100.00
63903;BME280;50072;50.678;13.938;2023-02-18T07:02:14;99705.91;;;7.95;100.00
63903;BME280;50072;50.678;13.938;2023-02-18T07:04:41;99713.84;;;8.01;100.00
63903;BME280;50072;50.678;13.938;2023-02-18T07:07:06;99708.41;;;8.07;100.00
63903;BME280;50072;50.678;13.938;2023-02-18T07:09:33;99706.56;;;8.12;100.00
63903;BME280;50072;50.678;13.938;2023-02-18T07:11:59;99697.66;;;8.13;100.00
63903;BME280;50072;50.678;13.938;2023-02-18T07:14:25;99703.13;;;8.04;100.00
63903;BME280;50072;50.678;13.938;2023-02-18T07:16:52;99708.38;;;8.09;100.00
63903;BME280;50072;50.678;13.938;2023-02-18T07:19:18;99702.03;;;8.18;100.00
63903;BME280;50072;50.678;13.938;2023-02-18T07:21:44;99701.09;;;8.22;100.00
63903;BME280;50072;50.678;13.938;2023-02-18T07:24:11;99698.50;;;8.17;100.00
63903;BME280;50072;50.678;13.938;2023-02-18T07:26:37;99692.31;;;8.17;100.00
63903;BME280;50072;50.678;13.938;2023-02-18T07:29:04;99685.25;;;8.12;100.00
63903;BME280;50072;50.678;13.938;2023-02-18T07:31:30;99689.56;;;8.21;100.00
63903;BME280;50072;50.678;13.938;2023-02-18T07:33:57;99693.97;;;8.21;100.00
63903;BME280;50072;50.678;13.938;2023-02-18T07:36:23;99673.50;;;8.24;100.00
63903;BME280;50072;50.678;13.938;2023-02-18T07:38:51;99681.53;;;8.23;100.00
63903;BME280;50072;50.678;13.938;2023-02-18T07:41:19;99671.91;;;8.12;100.00
63903;BME280;50072;50.678;13.938;2023-02-18T07:43:48;99680.72;;;8.16;100.00
63903;BME280;50072;50.678;13.938;2023-02-18T07:46:14;99664.69;;;8.19;100.00
63903;BME280;50072;50.678;13.938;2023-02-18T07:48:43;99660.22;;;8.21;100.00
63903;BME280;50072;50.678;13.938;2023-02-18T07:51:10;99650.50;;;8.19;100.00
63903;BME280;50072;50.678;13.938;2023-02-18T07:53:38;99654.13;;;8.13;100.00
63903;BME280;50072;50.678;13.938;2023-02-18T07:56:06;99654.06;;;8.16;100.00
63903;BME280;50072;50.678;13.938;2023-02-18T07:58:36;99654.91;;;8.20;100.00
63903;BME280;50072;50.678;13.938;2023-02-18T08:01:10;99653.03;;;8.25;100.00
63903;BME280;50072;50.678;13.938;2023-02-18T08:03:39;99639.75;;;8.23;100.00
63903;BME280;50072;50.678;13.938;2023-02-18T08:06:07;99637.09;;;8.22;100.00
63903;BME280;50072;50.678;13.938;2023-02-18T08:08:34;99635.34;;;8.21;100.00
63903;BME280;50072;50.678;13.938;2023-02-18T08:11:02;99638.88;;;8.23;100.00
63903;BME280;50072;50.678;13.938;2023-02-18T08:13:29;99629.91;;;8.27;100.00
63903;BME280;50072;50.678;13.938;2023-02-18T08:15:56;99625.56;;;8.21;100.00
63903;BME280;50072;50.678;13.938;2023-02-18T08:18:24;99620.31;;;8.17;100.00
63903;BME280;50072;50.678;13.938;2023-02-18T08:20:53;99627.38;;;8.19;100.00
63903;BME280;50072;50.678;13.938;2023-02-18T08:23:21;99624.84;;;8.11;100.00
63903;BME280;50072;50.678;13.938;2023-02-18T08:25:49;99621.22;;;8.16;100.00
63903;BME280;50072;50.678;13.938;2023-02-18T08:28:20;99617.66;;;8.17;100.00
63903;BME280;50072;50.678;13.938;2023-02-18T08:30:49;99623.78;;;8.22;100.00
63903;BME280;50072;50.678;13.938;2023-02-18T08:33:16;99614.91;;;8.21;100.00
63903;BME280;50072;50.678;13.938;2023-02-18T08:35:44;99614.81;;;8.26;100.00
63903;BME280;50072;50.678;13.938;2023-02-18T08:38:13;99614.78;;;8.27;100.00
63903;BME280;50072;50.678;13.938;2023-02-18T08:40:41;99597.94;;;8.27;100.00
63903;BME280;50072;50.678;13.938;2023-02-18T08:43:08;99605.09;;;8.22;100.00
63903;BME280;50072;50.678;13.938;2023-02-18T08:45:36;99596.34;;;8.13;100.00
63903;BME280;50072;50.678;13.938;2023-02-18T08:48:04;99594.47;;;8.20;100.00
63903;BME280;50072;50.678;13.938;2023-02-18T08:50:31;99583.72;;;8.25;100.00
63903;BME280;50072;50.678;13.938;2023-02-18T08:53:00;99588.00;;;8.37;100.00
63903;BME280;50072;50.678;13.938;2023-02-18T08:55:29;99588.84;;;8.37;100.00
63903;BME280;50072;50.678;13.938;2023-02-18T08:57:56;99576.41;;;8.36;100.00
63903;BME280;50072;50.678;13.938;2023-02-18T09:00:23;99556.88;;;8.36;100.00
63903;BME280;50072;50.678;13.938;2023-02-18T09:02:50;99575.56;;;8.36;100.00
63903;BME280;50072;50.678;13.938;2023-02-18T09:05:16;99579.00;;;8.42;100.00
63903;BME280;50072;50.678;13.938;2023-02-18T09:07:42;99569.16;;;8.48;100.00
63903;BME280;50072;50.678;13.938;2023-02-18T09:10:09;99562.81;;;8.53;100.00
63903;BME280;50072;50.678;13.938;2023-02-18T09:12:36;99554.72;;;8.59;100.00
63903;BME280;50072;50.678;13.938;2023-02-18T09:15:03;99559.28;;;8.53;100.00
63903;BME280;50072;50.678;13.938;2023-02-18T09:17:29;99555.59;;;8.60;100.00
63903;BME280;50072;50.678;13.938;2023-02-18T09:19:58;99568.09;;;8.56;100.00
63903;BME280;50072;50.678;13.938;2023-02-18T09:22:24;99573.44;;;8.56;100.00
63903;BME280;50072;50.678;13.938;2023-02-18T09:24:52;99554.00;;;8.50;100.00
63903;BME280;50072;50.678;13.938;2023-02-18T09:27:18;99543.31;;;8.51;100.00
63903;BME280;50072;50.678;13.938;2023-02-18T09:29:44;99533.63;;;8.45;100.00
63903;BME280;50072;50.678;13.938;2023-02-18T09:32:11;99532.59;;;8.53;100.00
63903;BME280;50072;50.678;13.938;2023-02-18T09:34:37;99535.13;;;8.60;100.00
63903;BME280;50072;50.678;13.938;2023-02-18T09:37:04;99541.25;;;8.66;100.00
63903;BME280;50072;50.678;13.938;2023-02-18T09:39:29;99531.59;;;8.60;100.00
63903;BME280;50072;50.678;13.938;2023-02-18T09:42:02;99533.53;;;8.50;100.00
63903;BME280;50072;50.678;13.938;2023-02-18T09:45:02;99515.66;;;8.57;100.00
63903;BME280;50072;50.678;13.938;2023-02-18T09:47:38;99520.13;;;8.53;100.00
63903;BME280;50072;50.678;13.938;2023-02-18T09:50:25;99515.88;;;8.44;100.00
63903;BME280;50072;50.678;13.938;2023-02-18T09:52:52;99520.19;;;8.50;100.00
63903;BME280;50072;50.678;13.938;2023-02-18T09:55:28;99516.59;;;8.53;100.00
63903;BME280;50072;50.678;13.938;2023-02-18T10:03:19;99495.56;;;8.83;100.00
63903;BME280;50072;50.678;13.938;2023-02-18T10:06:09;99497.38;;;8.80;100.00
63903;BME280;50072;50.678;13.938;2023-02-18T10:08:42;99498.44;;;8.72;100.00
63903;BME280;50072;50.678;13.938;2023-02-18T10:11:22;99498.19;;;8.84;100.00
63903;BME280;50072;50.678;13.938;2023-02-18T10:13:52;99499.88;;;8.88;100.00
63903;BME280;50072;50.678;13.938;2023-02-18T10:16:19;99482.91;;;8.92;100.00
63903;BME280;50072;50.678;13.938;2023-02-18T10:18:55;99492.00;;;8.84;100.00
63903;BME280;50072;50.678;13.938;2023-02-18T10:21:24;99476.78;;;8.87;100.00
63903;BME280;50072;50.678;13.938;2023-02-18T10:23:59;99471.25;;;8.96;100.00
63903;BME280;50072;50.678;13.938;2023-02-18T10:26:28;99469.41;;;8.98;100.00
63903;BME280;50072;50.678;13.938;2023-02-18T10:28:57;99458.78;;;8.97;100.00
63903;BME280;50072;50.678;13.938;2023-02-18T10:31:29;99456.56;;;9.16;100.00
63903;BME280;50072;50.678;13.938;2023-02-18T10:40:54;99445.97;;;9.13;100.00
63903;BME280;50072;50.678;13.938;2023-02-18T10:43:54;99441.28;;;9.23;100.00
63903;BME280;50072;50.678;13.938;2023-02-18T10:46:36;99431.81;;;9.09;100.00
63903;BME280;50072;50.678;13.938;2023-02-18T10:52:15;99420.09;;;9.17;100.00
63903;BME280;50072;50.678;13.938;2023-02-18T10:57:26;99418.41;;;9.12;100.00
63903;BME280;50072;50.678;13.938;2023-02-18T11:02:27;99390.84;;;9.10;100.00
63903;BME280;50072;50.678;13.938;2023-02-18T11:04:56;99391.63;;;9.15;100.00
63903;BME280;50072;50.678;13.938;2023-02-18T11:07:31;99383.72;;;9.11;100.00
63903;BME280;50072;50.678;13.938;2023-02-18T11:10:14;99382.81;;;9.10;100.00
63903;BME280;50072;50.678;13.938;2023-02-18T11:12:56;99368.66;;;9.08;100.00
63903;BME280;50072;50.678;13.938;2023-02-18T11:15:26;99373.94;;;9.10;100.00
63903;BME280;50072;50.678;13.938;2023-02-18T11:18:10;99370.47;;;9.06;100.00
63903;BME280;50072;50.678;13.938;2023-02-18T11:20:37;99354.31;;;9.12;100.00
63903;BME280;50072;50.678;13.938;2023-02-18T11:23:17;99369.19;;;9.23;100.00
63903;BME280;50072;50.678;13.938;2023-02-18T11:25:56;99370.34;;;9.12;100.00
63903;BME280;50072;50.678;13.938;2023-02-18T11:31:03;99337.47;;;9.09;100.00
63903;BME280;50072;50.678;13.938;2023-02-18T11:33:38;99344.78;;;9.01;100.00
63903;BME280;50072;50.678;13.938;2023-02-18T11:38:49;99338.22;;;9.15;100.00
63903;BME280;50072;50.678;13.938;2023-02-18T11:41:19;99331.03;;;9.18;100.00
63903;BME280;50072;50.678;13.938;2023-02-18T11:43:49;99315.25;;;9.08;100.00
63903;BME280;50072;50.678;13.938;2023-02-18T11:46:22;99329.50;;;9.07;100.00
63903;BME280;50072;50.678;13.938;2023-02-18T11:48:50;99327.53;;;9.15;100.00
63903;BME280;50072;50.678;13.938;2023-02-18T11:51:32;99309.63;;;9.21;100.00
63903;BME280;50072;50.678;13.938;2023-02-18T11:54:20;99310.53;;;9.20;100.00
63903;BME280;50072;50.678;13.938;2023-02-18T11:56:56;99301.06;;;9.06;100.00
63903;BME280;50072;50.678;13.938;2023-02-18T11:59:24;99288.25;;;9.21;100.00
63903;BME280;50072;50.678;13.938;2023-02-18T12:04:45;99298.25;;;9.12;100.00
63903;BME280;50072;50.678;13.938;2023-02-18T12:10:13;99295.25;;;9.25;100.00
63903;BME280;50072;50.678;13.938;2023-02-18T12:13:22;99294.34;;;9.26;100.00
63903;BME280;50072;50.678;13.938;2023-02-18T12:26:50;99276.94;;;9.45;100.00
63903;BME280;50072;50.678;13.938;2023-02-18T12:29:45;99265.28;;;9.48;100.00
63903;BME280;50072;50.678;13.938;2023-02-18T12:43:26;99241.75;;;10.53;91.14
63903;BME280;50072;50.678;13.938;2023-02-18T12:51:24;99254.63;;;10.69;87.70
63903;BME280;50072;50.678;13.938;2023-02-18T12:57:01;99263.69;;;10.65;87.82
63903;BME280;50072;50.678;13.938;2023-02-18T13:08:25;99284.16;;;10.66;84.86
63903;BME280;50072;50.678;13.938;2023-02-18T13:14:03;99277.88;;;10.67;82.56
63903;BME280;50072;50.678;13.938;2023-02-18T13:16:33;99268.19;;;10.63;81.38
63903;BME280;50072;50.678;13.938;2023-02-18T13:21:35;99279.09;;;10.57;80.32
63903;BME280;50072;50.678;13.938;2023-02-18T13:24:09;99283.59;;;10.56;80.39
63903;BME280;50072;50.678;13.938;2023-02-18T13:26:37;99273.91;;;10.52;80.97
63903;BME280;50072;50.678;13.938;2023-02-18T13:29:27;99270.56;;;10.44;81.12
63903;BME280;50072;50.678;13.938;2023-02-18T13:32:07;99277.75;;;10.43;80.69
63903;BME280;50072;50.678;13.938;2023-02-18T13:34:47;99271.50;;;10.43;81.22
63903;BME280;50072;50.678;13.938;2023-02-18T13:40:02;99259.94;;;10.42;79.08
63903;BME280;50072;50.678;13.938;2023-02-18T13:52:49;99256.91;;;10.53;78.08
63903;BME280;50072;50.678;13.938;2023-02-18T13:55:21;99270.44;;;10.48;77.55
63903;BME280;50072;50.678;13.938;2023-02-18T13:57:53;99264.31;;;10.45;76.96
63903;BME280;50072;50.678;13.938;2023-02-18T14:00:23;99239.34;;;10.44;77.13
63903;BME280;50072;50.678;13.938;2023-02-18T14:02:59;99240.28;;;10.43;78.72
63903;BME280;50072;50.678;13.938;2023-02-18T14:05:38;99230.78;;;10.31;82.95
63903;BME280;50072;50.678;13.938;2023-02-18T14:10:38;99225.25;;;10.09;84.04
63903;BME280;50072;50.678;13.938;2023-02-18T14:13:24;99220.00;;;10.06;84.10
63903;BME280;50072;50.678;13.938;2023-02-18T14:15:57;99241.03;;;9.87;83.11
63903;BME280;50072;50.678;13.938;2023-02-18T14:18:31;99220.00;;;9.75;82.69
63903;BME280;50072;50.678;13.938;2023-02-18T14:24:04;99224.75;;;9.65;82.85
63903;BME280;50072;50.678;13.938;2023-02-18T14:26:49;99220.75;;;9.80;79.82
63903;BME280;50072;50.678;13.938;2023-02-18T14:29:25;99238.31;;;9.89;77.44
63903;BME280;50072;50.678;13.938;2023-02-18T14:32:09;99240.72;;;9.98;77.83
63903;BME280;50072;50.678;13.938;2023-02-18T14:37:24;99248.47;;;10.07;76.26
63903;BME280;50072;50.678;13.938;2023-02-18T14:46:14;99226.81;;;10.46;74.80
63903;BME280;50072;50.678;13.938;2023-02-18T14:50:49;99209.78;;;10.49;75.58
63903;BME280;50072;50.678;13.938;2023-02-18T14:53:21;99224.03;;;10.49;75.31
63903;BME280;50072;50.678;13.938;2023-02-18T14:55:52;99222.75;;;10.61;76.08
63903;BME280;50072;50.678;13.938;2023-02-18T14:58:35;99224.59;;;10.87;74.68
63903;BME280;50072;50.678;13.938;2023-02-18T15:01:15;99223.84;;;11.09;73.86
63903;BME280;50072;50.678;13.938;2023-02-18T15:03:41;99201.75;;;11.02;73.24
63903;BME280;50072;50.678;13.938;2023-02-18T15:06:36;99231.31;;;10.73;74.43
63903;BME280;50072;50.678;13.938;2023-02-18T15:09:13;99238.03;;;10.58;75.81
63903;BME280;50072;50.678;13.938;2023-02-18T15:11:59;99244.75;;;10.43;75.76
63903;BME280;50072;50.678;13.938;2023-02-18T15:14:32;99221.84;;;10.34;75.96
63903;BME280;50072;50.678;13.938;2023-02-18T15:17:01;99213.81;;;10.34;76.64
63903;BME280;50072;50.678;13.938;2023-02-18T15:19:43;99238.63;;;10.39;77.18
63903;BME280;50072;50.678;13.938;2023-02-18T15:22:22;99217.75;;;10.21;77.52
63903;BME280;50072;50.678;13.938;2023-02-18T15:24:54;99231.19;;;10.19;77.93
63903;BME280;50072;50.678;13.938;2023-02-18T15:27:22;99241.28;;;10.09;78.75
63903;BME280;50072;50.678;13.938;2023-02-18T15:30:23;99223.13;;;9.91;79.42
63903;BME280;50072;50.678;13.938;2023-02-18T15:32:52;99224.38;;;9.77;79.76
63903;BME280;50072;50.678;13.938;2023-02-18T15:35:22;99215.72;;;9.69;80.41
63903;BME280;50072;50.678;13.938;2023-02-18T15:37:57;99231.81;;;9.66;80.32
63903;BME280;50072;50.678;13.938;2023-02-18T15:40:27;99232.69;;;9.68;79.67